Time;durP1;ratioP1;P1;durP2;ratioP2;P2;SDS_P1;SDS_P2;PMS_P1;PMS_P2;Temp;Humidity;BMP_temperature;BMP_pressure;BME280_temperature;BME280_humidity;BME280_pressure;Samples;Min_cycle;Max_cycle;Signal;HPM_P1;HPM_P2
2024/02/07 00:01:46;;;;;;;3.97;1.92;;;7.90;1.00;;;;;;7365682;19;20010;-70
2024/02/07 00:04:18;;;;;;;3.88;1.90;;;7.90;1.00;;;;;;7368062;19;20021;-70
2024/02/07 00:06:49;;;;;;;3.83;2.20;;;7.90;1.00;;;;;;7369071;19;20024;-71
2024/02/07 00:09:19;;;;;;;5.38;2.50;;;7.90;1.00;;;;;;7368199;19;20006;-70
2024/02/07 00:11:49;;;;;;;2.97;1.98;;;7.90;1.00;;;;;;7366706;19;20353;-71
2024/02/07 00:14:19;;;;;;;5.38;1.95;;;7.90;1.00;;;;;;7368252;19;20011;-71
2024/02/07 00:16:49;;;;;;;2.95;2.10;;;7.90;1.00;;;;;;7367217;19;20423;-70
2024/02/07 00:19:22;;;;;;;4.47;2.17;;;7.90;1.00;;;;;;7365448;19;20082;-71
2024/02/07 00:21:52;;;;;;;3.10;1.83;;;7.90;1.00;;;;;;7364495;19;20066;-71
2024/02/07 00:24:22;;;;;;;4.93;2.25;;;7.90;1.00;;;;;;7366720;19;20035;-71
2024/02/07 00:26:52;;;;;;;5.05;2.90;;;7.90;1.00;;;;;;7365331;19;20388;-70
2024/02/07 00:29:22;;;;;;;3.88;1.75;;;7.90;1.00;;;;;;7367319;19;20593;-71
2024/02/07 00:31:53;;;;;;;5.43;2.60;;;7.80;1.00;;;;;;7372179;19;20025;-71
2024/02/07 00:34:25;;;;;;;5.22;2.33;;;7.80;1.00;;;;;;7375486;19;20067;-71
2024/02/07 00:36:55;;;;;;;3.10;1.90;;;7.80;1.00;;;;;;7374421;19;20036;-70
2024/02/07 00:39:25;;;;;;;4.85;2.28;;;7.70;1.00;;;;;;7375616;19;20007;-70
2024/02/07 00:41:55;;;;;;;3.20;1.75;;;7.70;1.00;;;;;;7373180;19;20007;-71
2024/02/07 00:44:25;;;;;;;4.15;2.17;;;7.70;1.00;;;;;;7376117;19;20363;-70
2024/02/07 00:46:55;;;;;;;3.92;2.10;;;7.70;1.00;;;;;;7374178;19;20017;-70
2024/02/07 00:49:28;;;;;;;2.28;1.73;;;7.70;1.00;;;;;;7373686;19;20022;-70
2024/02/07 00:51:58;;;;;;;3.22;1.75;;;7.70;1.00;;;;;;7373246;19;20047;-70
2024/02/07 00:54:28;;;;;;;4.13;2.22;;;7.80;1.00;;;;;;7375503;19;20359;-70
2024/02/07 00:56:58;;;;;;;3.97;2.10;;;7.80;1.00;;;;;;7366820;19;20385;-70
2024/02/07 00:59:28;;;;;;;4.10;2.10;;;7.80;1.00;;;;;;7365478;19;20368;-71
2024/02/07 01:01:58;;;;;;;5.45;1.85;;;7.80;1.00;;;;;;7364018;19;20037;-71
2024/02/07 01:04:31;;;;;;;5.05;1.90;;;7.80;1.00;;;;;;7366217;19;20014;-71
2024/02/07 01:07:01;;;;;;;5.95;2.22;;;7.80;1.00;;;;;;7365738;19;20013;-70
2024/02/07 01:09:31;;;;;;;5.60;2.22;;;7.90;1.00;;;;;;7365977;19;20011;-72
2024/02/07 01:12:01;;;;;;;3.08;2.20;;;7.80;1.00;;;;;;7365244;19;20031;-71
2024/02/07 01:14:31;;;;;;;3.97;2.10;;;7.80;1.00;;;;;;7365233;19;20509;-70
2024/02/07 01:17:01;;;;;;;4.30;1.98;;;7.90;1.00;;;;;;7366350;19;20064;-70
2024/02/07 01:19:34;;;;;;;4.35;2.10;;;7.90;1.00;;;;;;7365107;19;20447;-72
2024/02/07 01:22:05;;;;;;;3.47;1.73;;;7.90;1.00;;;;;;7362594;19;20047;-71
2024/02/07 01:24:35;;;;;;;4.90;2.20;;;7.90;1.00;;;;;;7365224;19;20041;-71
2024/02/07 01:27:07;;;;;;;6.07;2.17;;;7.90;1.00;;;;;;7366429;19;20021;-70
2024/02/07 01:29:37;;;;;;;4.35;2.10;;;7.90;1.00;;;;;;7366766;19;20500;-70
2024/02/07 01:32:08;;;;;;;2.75;2.10;;;7.90;1.00;;;;;;7361003;19;20624;-70
2024/02/07 01:34:42;;;;;;;4.43;2.20;;;7.90;1.00;;;;;;7365821;19;20019;-69
2024/02/07 01:37:12;;;;;;;6.15;2.30;;;7.90;1.00;;;;;;7363344;19;20504;-70
2024/02/07 01:39:42;;;;;;;3.25;2.15;;;7.80;1.00;;;;;;7363649;19;20011;-69
2024/02/07 01:42:12;;;;;;;6.10;2.05;;;7.90;1.00;;;;;;7362893;19;20015;-70
2024/02/07 01:44:43;;;;;;;4.20;1.83;;;7.90;1.00;;;;;;7364362;19;20479;-70
2024/02/07 01:47:15;;;;;;;3.20;2.05;;;7.90;1.00;;;;;;7363948;19;20030;-69
2024/02/07 01:49:50;;;;;;;4.40;2.05;;;7.90;1.00;;;;;;7363437;19;20014;-70
2024/02/07 01:52:24;;;;;;;6.75;2.85;;;8.00;1.00;;;;;;7370607;19;20018;-70
2024/02/07 01:54:55;;;;;;;8.07;2.05;;;7.90;1.00;;;;;;7372888;19;20025;-71
2024/02/07 01:57:25;;;;;;;2.97;2.00;;;8.00;1.00;;;;;;7370927;19;20460;-71
2024/02/07 01:59:55;;;;;;;4.65;2.40;;;7.90;1.00;;;;;;7371202;19;20419;-71
2024/02/07 02:02:25;;;;;;;3.55;2.10;;;7.90;1.00;;;;;;7369583;19;20518;-71
2024/02/07 02:04:58;;;;;;;3.45;2.08;;;7.90;1.00;;;;;;7371241;19;20105;-70
2024/02/07 02:07:28;;;;;;;4.90;2.45;;;7.90;1.00;;;;;;7371713;19;20018;-71
2024/02/07 02:09:58;;;;;;;4.95;2.13;;;7.90;1.00;;;;;;7370690;19;20019;-71
2024/02/07 02:12:30;;;;;;;5.10;2.33;;;7.90;1.00;;;;;;7371013;19;20106;-71
2024/02/07 02:15:00;;;;;;;4.43;2.50;;;7.90;1.00;;;;;;7369301;19;20086;-70
2024/02/07 02:17:30;;;;;;;3.33;1.83;;;7.80;1.00;;;;;;7370568;19;20062;-70
2024/02/07 02:20:04;;;;;;;5.18;2.00;;;7.80;1.00;;;;;;7370332;19;21009;-71
2024/02/07 02:23:00;;;;;;;3.33;2.20;;;7.80;1.00;;;;;;7368996;19;20343;-70
2024/02/07 02:25:45;;;;;;;6.90;2.53;;;7.70;1.00;;;;;;6859917;19;2004894;-71
2024/02/07 02:28:27;;;;;;;6.88;2.83;;;7.70;1.00;;;;;;7368989;19;20014;-72
2024/02/07 02:31:02;;;;;;;3.10;2.33;;;7.70;1.00;;;;;;7370488;19;20014;-70
2024/02/07 02:33:34;;;;;;;4.65;2.00;;;7.70;1.00;;;;;;7370788;19;20070;-71
2024/02/07 02:36:07;;;;;;;5.03;2.50;;;7.70;1.00;;;;;;7369706;19;20015;-71
2024/02/07 02:38:38;;;;;;;7.05;2.67;;;7.60;1.00;;;;;;7368264;19;20014;-70
2024/02/07 02:41:09;;;;;;;3.95;2.55;;;7.60;1.00;;;;;;7367385;19;20087;-70
2024/02/07 02:43:40;;;;;;;4.85;2.75;;;7.50;1.00;;;;;;7370516;19;20106;-70
2024/02/07 02:46:14;;;;;;;5.15;2.40;;;7.50;1.00;;;;;;7367824;19;20006;-70
2024/02/07 02:48:44;;;;;;;4.53;2.22;;;7.50;1.00;;;;;;7364973;19;20733;-70
2024/02/07 02:51:14;;;;;;;3.75;2.80;;;7.50;1.00;;;;;;7368079;19;20408;-71
2024/02/07 02:53:44;;;;;;;6.55;2.75;;;7.50;1.00;;;;;;7368093;19;20014;-70
2024/02/07 02:56:15;;;;;;;2.83;2.00;;;7.50;1.00;;;;;;7370130;19;20418;-70
2024/02/07 02:58:45;;;;;;;2.92;2.10;;;7.60;1.00;;;;;;7368845;19;20073;-70
2024/02/07 03:01:17;;;;;;;4.72;2.78;;;7.50;1.00;;;;;;7367233;19;20478;-70
2024/02/07 03:03:53;;;;;;;9.00;2.33;;;7.60;1.00;;;;;;7366546;19;20046;-70
2024/02/07 03:06:39;;;;;;;4.10;2.10;;;7.60;1.00;;;;;;7370403;19;20011;-71
2024/02/07 03:09:19;;;;;;;3.70;2.40;;;7.60;1.00;;;;;;7368335;19;20014;-71
2024/02/07 03:11:50;;;;;;;4.57;2.22;;;7.70;1.00;;;;;;7367297;19;20015;-70
2024/02/07 03:14:20;;;;;;;4.05;2.75;;;7.70;1.00;;;;;;7370678;19;20018;-71
2024/02/07 03:16:53;;;;;;;3.00;2.13;;;7.60;1.00;;;;;;7369992;19;20047;-72
2024/02/07 03:19:24;;;;;;;3.75;2.42;;;7.70;1.00;;;;;;7370689;19;20019;-72
2024/02/07 03:21:56;;;;;;;4.13;2.35;;;7.70;1.00;;;;;;7369941;19;20053;-71
2024/02/07 03:24:26;;;;;;;5.25;2.22;;;7.70;1.00;;;;;;7369027;19;20013;-70
2024/02/07 03:26:57;;;;;;;4.80;2.30;;;7.70;1.00;;;;;;7368310;19;20588;-72
2024/02/07 03:29:27;;;;;;;7.72;2.38;;;7.70;1.00;;;;;;7367817;19;20010;-71
2024/02/07 03:32:00;;;;;;;4.72;2.75;;;7.70;1.00;;;;;;7366948;19;20010;-71
2024/02/07 03:34:30;;;;;;;2.97;2.00;;;7.80;1.00;;;;;;7368047;19;20014;-71
2024/02/07 03:37:00;;;;;;;5.03;2.13;;;7.80;1.00;;;;;;7367548;19;20014;-70
2024/02/07 03:39:31;;;;;;;4.28;1.80;;;7.80;1.00;;;;;;7367773;19;20014;-71
2024/02/07 03:42:01;;;;;;;5.22;2.45;;;7.90;1.00;;;;;;7365112;19;20003;-71
2024/02/07 03:44:31;;;;;;;4.10;2.35;;;8.00;1.00;;;;;;7367456;19;20027;-71
2024/02/07 03:47:03;;;;;;;2.28;2.05;;;8.00;1.00;;;;;;7366554;19;20467;-71
2024/02/07 03:49:34;;;;;;;4.28;2.10;;;8.00;1.00;;;;;;7367254;19;20479;-72
2024/02/07 03:52:04;;;;;;;6.15;2.03;;;8.10;1.00;;;;;;7365249;19;20009;-70
2024/02/07 03:54:40;;;;;;;4.00;2.20;;;8.10;1.00;;;;;;7366808;19;20022;-70
2024/02/07 03:57:10;;;;;;;3.78;2.00;;;8.10;1.00;;;;;;7366526;19;20037;-74
2024/02/07 03:59:40;;;;;;;3.83;2.08;;;8.10;1.00;;;;;;7366837;19;20122;-70
2024/02/07 04:02:21;;;;;;;4.10;1.98;;;8.10;1.00;;;;;;7362330;19;20014;-70
2024/02/07 04:04:51;;;;;;;2.67;1.92;;;8.20;1.00;;;;;;7366504;19;20074;-70
2024/02/07 04:07:24;;;;;;;4.22;2.15;;;8.20;1.00;;;;;;7366802;19;20010;-71
2024/02/07 04:09:55;;;;;;;3.45;1.83;;;8.30;1.00;;;;;;7365328;19;20527;-71
2024/02/07 05:17:07;;;;;;;3.22;2.08;;;8.60;1.00;;;;;;7365347;19;20070;-70
2024/02/07 05:19:37;;;;;;;3.53;1.67;;;8.60;1.00;;;;;;7363880;19;19999;-71
2024/02/07 05:22:10;;;;;;;3.28;1.50;;;8.60;1.00;;;;;;7363616;19;20010;-72
2024/02/07 05:24:41;;;;;;;5.35;1.67;;;8.60;1.00;;;;;;7365331;19;20011;-70
2024/02/07 05:27:12;;;;;;;2.67;1.48;;;8.60;1.00;;;;;;7371887;19;20018;-71
2024/02/07 05:29:43;;;;;;;3.35;1.30;;;8.60;1.00;;;;;;7370555;19;20014;-70
2024/02/07 05:32:13;;;;;;;2.58;1.60;;;8.60;1.00;;;;;;7370138;19;20501;-71
2024/02/07 05:34:43;;;;;;;2.30;1.70;;;8.60;1.00;;;;;;7370193;19;20014;-71
2024/02/07 05:37:20;;;;;;;4.97;1.90;;;8.60;1.00;;;;;;7370790;19;20379;-70
2024/02/07 05:39:50;;;;;;;2.50;1.77;;;8.60;1.00;;;;;;7372213;19;20013;-71
2024/02/07 05:42:20;;;;;;;2.70;1.60;;;8.50;1.00;;;;;;7370240;19;20098;-69
2024/02/07 05:44:51;;;;;;;2.55;1.73;;;8.50;1.00;;;;;;7370053;19;20351;-71
2024/02/07 05:47:21;;;;;;;3.78;1.98;;;8.50;1.00;;;;;;7370997;19;20076;-70
2024/02/07 05:49:51;;;;;;;3.20;1.98;;;8.50;1.00;;;;;;7370306;19;20006;-70
2024/02/07 05:52:26;;;;;;;4.03;2.20;;;8.50;1.00;;;;;;7368430;19;20523;-69
2024/02/07 05:54:58;;;;;;;3.83;2.03;;;8.50;1.00;;;;;;7368815;19;20019;-71
2024/02/07 05:57:29;;;;;;;4.75;2.00;;;8.50;1.00;;;;;;7371538;19;20345;-70
2024/02/07 05:59:59;;;;;;;3.55;2.33;;;8.50;1.00;;;;;;7369374;19;20041;-71
2024/02/07 06:02:29;;;;;;;3.90;2.45;;;8.50;1.00;;;;;;7369804;19;20381;-70
2024/02/07 06:05:01;;;;;;;4.18;2.53;;;8.50;1.00;;;;;;7370361;19;20505;-70
2024/02/07 06:07:34;;;;;;;4.18;2.80;;;8.40;1.00;;;;;;7368960;19;20014;-71
2024/02/07 06:10:05;;;;;;;5.35;2.75;;;8.50;1.00;;;;;;7369413;19;20479;-71
2024/02/07 06:12:36;;;;;;;4.80;2.80;;;8.50;1.00;;;;;;7368762;19;20007;-70
2024/02/07 06:15:07;;;;;;;4.97;2.83;;;8.50;1.00;;;;;;7368686;19;20054;-71
2024/02/07 06:17:37;;;;;;;3.90;2.40;;;8.40;1.00;;;;;;7370410;19;20305;-70
2024/02/07 06:20:10;;;;;;;5.45;2.78;;;8.50;1.00;;;;;;7369507;19;20779;-70
2024/02/07 06:22:47;;;;;;;12.85;2.88;;;8.40;1.00;;;;;;7369041;19;20329;-71
2024/02/07 06:25:18;;;;;;;4.38;2.58;;;8.40;1.00;;;;;;7369569;19;20017;-71
2024/02/07 06:27:48;;;;;;;5.15;2.63;;;8.40;1.00;;;;;;7370437;19;20015;-71
2024/02/07 06:30:18;;;;;;;4.43;2.63;;;8.50;1.00;;;;;;7370036;19;20029;-72
2024/02/07 06:32:48;;;;;;;3.20;2.30;;;8.50;1.00;;;;;;7368653;19;20401;-71
2024/02/07 06:35:19;;;;;;;5.78;2.35;;;8.50;1.00;;;;;;7371969;19;20010;-71
2024/02/07 06:37:51;;;;;;;4.88;2.97;;;8.50;1.00;;;;;;7376186;19;20006;-70
2024/02/07 06:40:21;;;;;;;4.65;2.38;;;8.50;1.00;;;;;;7376946;19;20348;-70
2024/02/07 06:42:51;;;;;;;5.70;3.00;;;8.60;1.00;;;;;;7377475;19;20018;-70
2024/02/07 06:45:21;;;;;;;3.90;2.80;;;8.60;1.00;;;;;;7376196;19;20011;-70
2024/02/07 06:47:52;;;;;;;5.28;2.88;;;8.60;1.00;;;;;;7379015;19;20074;-70
2024/02/07 06:50:24;;;;;;;4.60;2.95;;;8.60;1.00;;;;;;7375736;19;20049;-71
2024/02/07 06:52:56;;;;;;;5.20;3.05;;;8.50;1.00;;;;;;7375759;19;20013;-70
2024/02/07 06:55:26;;;;;;;6.78;3.10;;;8.50;1.00;;;;;;7379121;19;20033;-70
2024/02/07 06:57:56;;;;;;;4.03;2.92;;;8.50;1.00;;;;;;7378282;19;20605;-70
2024/02/07 07:00:26;;;;;;;4.05;3.03;;;8.60;1.00;;;;;;7377314;19;20865;-70
2024/02/07 07:02:56;;;;;;;4.05;2.70;;;8.60;1.00;;;;;;7376923;19;20011;-69
2024/02/07 07:05:26;;;;;;;13.68;3.25;;;8.60;1.00;;;;;;7377612;19;20964;-72
2024/02/07 07:07:59;;;;;;;6.20;2.80;;;8.70;1.00;;;;;;7376837;19;20017;-70
2024/02/07 07:10:29;;;;;;;5.07;3.10;;;8.70;1.00;;;;;;7376134;19;20479;-71
2024/02/07 07:12:59;;;;;;;5.65;2.67;;;8.70;1.00;;;;;;7378703;19;20014;-71
2024/02/07 07:15:29;;;;;;;4.60;3.13;;;8.70;1.00;;;;;;7377787;19;20814;-69
2024/02/07 07:18:03;;;;;;;10.70;3.10;;;8.70;1.00;;;;;;7356525;19;20057;-72
2024/02/07 07:20:34;;;;;;;6.15;2.97;;;8.80;1.00;;;;;;7376916;19;20021;-71
2024/02/07 07:23:06;;;;;;;6.68;2.92;;;8.80;1.00;;;;;;7375468;19;20042;-73
2024/02/07 07:25:45;;;;;;;5.55;3.30;;;8.80;1.00;;;;;;7369657;19;20015;-71
2024/02/07 07:28:15;;;;;;;10.85;3.58;;;8.80;1.00;;;;;;7367634;19;20010;-70
2024/02/07 07:30:45;;;;;;;7.20;2.92;;;8.90;1.00;;;;;;7368559;19;20027;-71
2024/02/07 07:33:15;;;;;;;5.13;2.92;;;8.80;1.00;;;;;;7367679;19;20021;-71
2024/02/07 07:35:46;;;;;;;5.72;3.20;;;8.90;1.00;;;;;;7368867;19;20006;-72
2024/02/07 07:38:18;;;;;;;7.57;3.30;;;8.90;1.00;;;;;;7367366;19;20471;-71
2024/02/07 07:40:48;;;;;;;4.45;2.97;;;8.90;1.00;;;;;;7370074;19;20368;-72
2024/02/07 07:43:19;;;;;;;5.82;3.28;;;9.00;1.00;;;;;;7367535;19;20083;-72
2024/02/07 07:45:49;;;;;;;9.93;3.58;;;9.00;1.00;;;;;;7365533;19;20029;-71
2024/02/07 07:48:19;;;;;;;4.00;2.70;;;9.00;1.00;;;;;;7362831;19;20476;-70
2024/02/07 07:50:54;;;;;;;5.80;3.10;;;9.00;1.00;;;;;;7362309;19;20014;-70
2024/02/07 07:53:26;;;;;;;5.32;3.05;;;9.00;1.00;;;;;;7366849;19;20011;-72
2024/02/07 07:55:56;;;;;;;9.80;3.05;;;9.00;1.00;;;;;;7367370;19;20013;-71
2024/02/07 07:58:26;;;;;;;5.90;3.25;;;9.00;1.00;;;;;;7368201;19;20045;-72
2024/02/07 08:01:06;;;;;;;6.53;3.20;;;9.10;1.00;;;;;;7367237;19;20010;-70
2024/02/07 08:03:36;;;;;;;6.30;3.20;;;9.10;1.00;;;;;;7367775;19;20010;-71
2024/02/07 08:06:07;;;;;;;8.32;3.13;;;9.10;1.00;;;;;;7369043;19;20018;-70
2024/02/07 08:08:39;;;;;;;7.00;3.40;;;9.10;1.00;;;;;;7367822;19;20500;-71
2024/02/07 08:11:09;;;;;;;4.82;3.10;;;9.10;1.00;;;;;;7365968;19;20028;-71
2024/02/07 08:13:39;;;;;;;6.50;3.10;;;9.10;1.00;;;;;;7366404;19;20014;-72
2024/02/07 08:16:09;;;;;;;5.50;2.88;;;9.10;1.00;;;;;;7366373;19;20440;-71
2024/02/07 08:18:39;;;;;;;7.32;3.58;;;9.10;1.00;;;;;;7367523;19;20022;-71
2024/02/07 08:21:09;;;;;;;4.75;3.17;;;9.20;1.00;;;;;;7364335;19;20010;-71
2024/02/07 08:23:43;;;;;;;5.60;2.85;;;9.20;1.00;;;;;;7365412;19;20046;-71
2024/02/07 08:26:13;;;;;;;11.50;6.15;;;9.20;1.00;;;;;;7369453;19;20017;-70
2024/02/07 08:28:43;;;;;;;7.15;3.13;;;9.30;1.00;;;;;;7367509;19;20006;-71
2024/02/07 08:31:16;;;;;;;5.43;3.63;;;9.30;1.00;;;;;;7365954;19;20066;-71
2024/02/07 08:33:46;;;;;;;7.35;3.20;;;9.30;1.00;;;;;;7366007;19;20428;-71
2024/02/07 08:36:16;;;;;;;6.07;3.50;;;9.30;1.00;;;;;;7366024;19;20015;-71
2024/02/07 08:38:49;;;;;;;7.70;3.38;;;9.40;1.00;;;;;;7365770;19;21331;-72
2024/02/07 08:41:19;;;;;;;9.57;4.07;;;9.40;1.00;;;;;;7366519;19;20018;-69
2024/02/07 08:43:49;;;;;;;4.72;3.08;;;9.40;1.00;;;;;;7365220;19;20010;-76
2024/02/07 08:46:19;;;;;;;6.18;2.90;;;9.50;1.00;;;;;;7366904;19;20017;-70
2024/02/07 08:48:50;;;;;;;7.05;3.28;;;9.50;1.00;;;;;;7365490;19;20018;-71
2024/02/07 08:51:20;;;;;;;6.25;3.05;;;9.50;1.00;;;;;;7365444;19;20052;-69
2024/02/07 08:53:52;;;;;;;7.68;3.15;;;9.60;1.00;;;;;;7365342;19;20464;-71
2024/02/07 08:56:23;;;;;;;9.07;3.10;;;9.60;1.00;;;;;;7366082;19;20430;-71
2024/02/07 08:58:53;;;;;;;7.90;3.05;;;9.60;1.00;;;;;;7366326;19;20013;-71
2024/02/07 09:01:23;;;;;;;7.25;2.75;;;9.60;1.00;;;;;;7373168;19;20017;-70
2024/02/07 09:03:54;;;;;;;7.35;2.72;;;9.70;1.00;;;;;;7373049;19;19998;-70
2024/02/07 09:06:24;;;;;;;8.35;3.70;;;9.70;1.00;;;;;;7369819;19;20006;-70
2024/02/07 09:08:57;;;;;;;6.78;3.22;;;9.70;1.00;;;;;;7373268;19;20372;-70
2024/02/07 09:11:28;;;;;;;5.45;2.58;;;9.70;1.00;;;;;;7371928;19;20013;-71
2024/02/07 09:13:59;;;;;;;7.35;2.80;;;9.80;1.00;;;;;;7373150;19;20015;-71
2024/02/07 09:16:29;;;;;;;10.27;2.65;;;9.80;1.00;;;;;;7372574;19;20007;-71
2024/02/07 09:19:00;;;;;;;9.02;3.00;;;9.90;1.00;;;;;;7368665;19;20083;-71
2024/02/07 09:21:30;;;;;;;7.10;3.00;;;9.90;1.00;;;;;;7370868;19;20080;-71
2024/02/07 09:24:07;;;;;;;4.47;3.08;;;9.90;1.00;;;;;;7371995;19;20467;-69
2024/02/07 09:26:37;;;;;;;4.75;2.70;;;9.90;1.00;;;;;;7369508;19;20010;-71
2024/02/07 09:29:07;;;;;;;7.15;3.70;;;9.90;1.00;;;;;;7369498;19;20011;-72
2024/02/07 09:31:38;;;;;;;6.82;3.42;;;9.90;1.00;;;;;;7368792;19;20033;-71
2024/02/07 09:34:08;;;;;;;8.85;3.90;;;9.90;1.00;;;;;;7371053;19;20018;-70
2024/02/07 09:36:38;;;;;;;5.22;2.78;;;9.90;1.00;;;;;;7371189;19;20006;-70
2024/02/07 09:39:11;;;;;;;9.32;2.92;;;9.90;1.00;;;;;;7370269;19;20032;-70
2024/02/07 09:41:45;;;;;;;5.45;2.60;;;9.90;1.00;;;;;;7371034;19;20010;-70
2024/02/07 09:44:18;;;;;;;5.88;2.95;;;9.90;1.00;;;;;;7372897;19;20348;-70
2024/02/07 09:46:53;;;;;;;4.30;2.53;;;9.90;1.00;;;;;;7371967;19;20011;-71
2024/02/07 09:49:25;;;;;;;5.63;2.70;;;10.00;1.00;;;;;;7373011;19;25934;-71
2024/02/07 09:51:56;;;;;;;4.22;2.78;;;10.00;1.00;;;;;;7370882;19;20010;-70
2024/02/07 09:54:29;;;;;;;7.15;3.17;;;10.00;1.00;;;;;;7372244;19;20040;-71
2024/02/07 09:57:00;;;;;;;6.18;3.13;;;10.00;1.00;;;;;;7371898;19;20013;-71
2024/02/07 09:59:31;;;;;;;5.00;2.65;;;10.10;1.00;;;;;;7373028;19;20570;-70
2024/02/07 10:02:01;;;;;;;6.80;2.72;;;10.10;1.00;;;;;;7370099;19;20010;-71
2024/02/07 10:04:39;;;;;;;5.65;2.80;;;10.20;1.00;;;;;;7366933;19;20021;-71
2024/02/07 10:07:14;;;;;;;6.95;2.38;;;10.20;1.00;;;;;;7368947;19;20238;-71
2024/02/07 10:09:50;;;;;;;7.03;2.80;;;10.30;1.00;;;;;;7369539;19;20014;-71
2024/02/07 10:12:20;;;;;;;7.15;2.95;;;10.40;1.00;;;;;;7368329;19;20015;-71
2024/02/07 10:14:52;;;;;;;8.00;3.83;;;10.40;1.00;;;;;;7371863;19;20018;-70
2024/02/07 10:17:22;;;;;;;10.02;5.55;;;10.50;1.00;;;;;;7370991;19;20093;-73
2024/02/07 10:19:52;;;;;;;5.00;2.70;;;10.50;1.00;;;;;;7369799;19;20094;-71
2024/02/07 10:22:22;;;;;;;5.22;2.35;;;10.60;1.00;;;;;;7369854;19;20011;-71
2024/02/07 10:24:55;;;;;;;6.22;2.63;;;10.60;1.00;;;;;;7371739;19;20032;-71
2024/02/07 10:27:25;;;;;;;4.43;2.42;;;10.60;1.00;;;;;;7366556;19;21488;-72
2024/02/07 10:30:07;;;;;;;3.78;2.30;;;10.50;1.00;;;;;;7369511;19;28006;-71
2024/02/07 10:32:52;;;;;;;5.55;2.63;;;10.60;1.00;;;;;;6859150;19;2003968;-71
2024/02/07 10:35:22;;;;;;;4.82;2.28;;;10.60;1.00;;;;;;7373935;19;20011;-70
2024/02/07 10:37:55;;;;;;;2.78;2.13;;;10.60;1.00;;;;;;7371554;19;20492;-71
2024/02/07 10:40:29;;;;;;;5.57;2.05;;;10.60;1.00;;;;;;7370189;19;20037;-72
2024/02/07 10:43:00;;;;;;;3.25;2.00;;;10.70;1.00;;;;;;7368361;19;20006;-70
2024/02/07 10:45:30;;;;;;;4.07;2.00;;;10.70;1.00;;;;;;7370164;19;20010;-71
2024/02/07 10:48:00;;;;;;;3.03;1.90;;;10.70;1.00;;;;;;7369566;19;20479;-72
2024/02/07 10:50:31;;;;;;;3.17;1.90;;;10.70;1.00;;;;;;7369270;19;20151;-72
2024/02/07 10:53:02;;;;;;;8.32;2.05;;;10.80;1.00;;;;;;7368532;19;20010;-71
2024/02/07 10:55:35;;;;;;;2.25;1.30;;;10.80;1.00;;;;;;7370173;19;20011;-70
2024/02/07 10:58:07;;;;;;;5.47;1.70;;;10.80;1.00;;;;;;7370209;19;20077;-71
2024/02/07 11:00:37;;;;;;;2.95;1.58;;;10.80;1.00;;;;;;7370632;19;20920;-71
2024/02/07 11:03:07;;;;;;;6.65;2.83;;;10.90;1.00;;;;;;7367362;19;20021;-71
2024/02/07 11:05:39;;;;;;;5.03;2.75;;;10.90;1.00;;;;;;7370702;19;20006;-74
2024/02/07 11:08:09;;;;;;;3.92;1.90;;;11.00;1.00;;;;;;7369542;19;20017;-70
2024/02/07 11:10:42;;;;;;;4.65;1.80;;;11.00;1.00;;;;;;7369412;19;20010;-70
2024/02/07 11:13:14;;;;;;;5.55;1.75;;;11.00;1.00;;;;;;7368017;19;20013;-70
2024/02/07 11:15:44;;;;;;;3.22;1.77;;;11.00;1.00;;;;;;7367124;19;20249;-71
2024/02/07 11:18:15;;;;;;;3.15;1.65;;;11.10;1.00;;;;;;7368711;19;20014;-72
2024/02/07 11:20:46;;;;;;;1.90;1.30;;;11.20;1.00;;;;;;7367790;19;20011;-70
2024/02/07 11:23:23;;;;;;;2.35;1.40;;;11.20;1.00;;;;;;7364750;19;20050;-70
2024/02/07 11:25:56;;;;;;;13.73;1.77;;;11.30;1.00;;;;;;7366707;19;20014;-73
2024/02/07 11:28:26;;;;;;;2.42;1.50;;;11.30;1.00;;;;;;7369632;19;20117;-70
2024/02/07 11:30:58;;;;;;;1.98;1.40;;;11.30;1.00;;;;;;7366945;19;20046;-70
2024/02/07 11:33:29;;;;;;;2.75;1.35;;;11.40;1.00;;;;;;7368282;19;23284;-70
2024/02/07 11:36:07;;;;;;;2.40;1.30;;;11.30;1.00;;;;;;7365903;19;20434;-71
2024/02/07 11:38:39;;;;;;;1.83;1.30;;;11.20;1.00;;;;;;7369457;19;20089;-71
2024/02/07 11:41:12;;;;;;;2.22;1.40;;;11.10;1.00;;;;;;7367399;19;20361;-72
2024/02/07 11:43:53;;;;;;;2.75;1.40;;;11.10;1.00;;;;;;7400921;19;20725;-71
2024/02/07 11:46:24;;;;;;;2.03;1.42;;;11.10;1.00;;;;;;7399584;19;20022;-72
2024/02/07 11:48:56;;;;;;;2.92;1.33;;;11.20;1.00;;;;;;7401010;19;20623;-72
2024/02/07 11:51:26;;;;;;;3.00;1.60;;;11.20;1.00;;;;;;7399174;19;20017;-71
2024/02/07 11:54:00;;;;;;;3.53;1.58;;;11.20;1.00;;;;;;7401032;19;20356;-72
2024/02/07 11:56:32;;;;;;;2.63;1.55;;;11.30;1.00;;;;;;7402834;19;21973;-70
2024/02/07 11:59:07;;;;;;;3.13;1.30;;;11.20;1.00;;;;;;7401317;19;20018;-71
2024/02/07 12:01:37;;;;;;;;;;;11.20;1.00;;;;;;7403250;19;20020;-71
2024/02/07 12:04:08;;;;;;;4.28;2.10;;;11.30;1.00;;;;;;7403704;19;19925;-71
2024/02/07 12:06:38;;;;;;;2.60;1.33;;;11.40;1.00;;;;;;7402587;19;20014;-71
2024/02/07 12:09:08;;;;;;;2.22;1.17;;;11.40;1.00;;;;;;7400546;19;20006;-71
2024/02/07 12:11:39;;;;;;;2.90;1.60;;;11.50;1.00;;;;;;7398845;19;20014;-71
2024/02/07 12:14:14;;;;;;;2.10;1.13;;;11.50;1.00;;;;;;7402882;19;20016;-74
2024/02/07 12:16:45;;;;;;;4.38;1.90;;;11.50;1.00;;;;;;7400106;19;20018;-72
2024/02/07 12:19:15;;;;;;;2.20;1.48;;;11.50;1.00;;;;;;7400338;19;20006;-71
2024/02/07 12:21:46;;;;;;;2.30;1.20;;;11.40;1.00;;;;;;7399263;19;20417;-70
2024/02/07 12:24:17;;;;;;;2.90;1.50;;;11.40;1.00;;;;;;7399262;19;20016;-70
2024/02/07 12:26:47;;;;;;;1.60;1.17;;;11.40;1.00;;;;;;7399910;19;20016;-72
2024/02/07 12:29:24;;;;;;;2.40;1.23;;;11.40;1.00;;;;;;7400956;19;20010;-70
2024/02/07 12:31:56;;;;;;;2.70;1.17;;;11.40;1.00;;;;;;7399280;19;20561;-71
2024/02/07 12:34:29;;;;;;;3.78;1.25;;;11.40;1.00;;;;;;7401348;19;20017;-72
2024/02/07 12:37:00;;;;;;;4.77;1.13;;;11.40;1.00;;;;;;7409631;19;20081;-71
2024/02/07 12:39:30;;;;;;;2.75;1.40;;;11.40;1.00;;;;;;7409371;19;20010;-71
2024/02/07 12:42:04;;;;;;;4.45;1.13;;;11.30;1.00;;;;;;7407837;19;20006;-71
2024/02/07 12:44:40;;;;;;;2.60;1.10;;;11.30;1.00;;;;;;7408453;19;20014;-72
2024/02/07 12:47:13;;;;;;;7.38;4.65;;;11.30;1.00;;;;;;7405873;19;20013;-71
2024/02/07 12:49:43;;;;;;;1.42;0.90;;;11.50;1.00;;;;;;7399246;19;20048;-71
2024/02/07 12:52:14;;;;;;;2.85;1.20;;;11.30;1.00;;;;;;7398347;19;20018;-71
2024/02/07 12:54:46;;;;;;;1.40;0.90;;;11.40;1.00;;;;;;7377633;19;20006;-72
2024/02/07 12:57:24;;;;;;;3.08;1.00;;;11.40;1.00;;;;;;7372076;19;20025;-72
2024/02/07 12:59:57;;;;;;;4.60;0.90;;;11.40;1.00;;;;;;7369186;19;20089;-72
2024/02/07 13:02:27;;;;;;;1.70;0.77;;;11.40;1.00;;;;;;7369773;19;20015;-71
2024/02/07 13:04:59;;;;;;;2.80;0.90;;;11.40;1.00;;;;;;7371979;19;20052;-71
2024/02/07 13:07:30;;;;;;;2.30;1.10;;;11.40;1.00;;;;;;7374623;19;20018;-71
2024/02/07 13:10:00;;;;;;;2.10;1.10;;;11.40;1.00;;;;;;7372247;19;20389;-71
2024/02/07 13:12:30;;;;;;;1.92;0.80;;;11.30;1.00;;;;;;7370064;19;20028;-72
2024/02/07 13:15:03;;;;;;;1.10;0.90;;;11.20;1.00;;;;;;7369794;19;20015;-72
2024/02/07 13:17:35;;;;;;;4.45;1.10;;;11.10;1.00;;;;;;7372243;19;20102;-71
2024/02/07 13:20:07;;;;;;;1.10;0.90;;;11.10;1.00;;;;;;7371717;19;20015;-71
2024/02/07 13:22:37;;;;;;;1.58;0.60;;;11.00;1.00;;;;;;7369639;19;20020;-73
2024/02/07 13:25:12;;;;;;;2.33;0.80;;;10.90;1.00;;;;;;7371579;19;20018;-71
2024/02/07 13:27:42;;;;;;;;;;;10.90;1.00;;;;;;7372718;19;20079;-71
2024/02/07 13:30:16;;;;;;;2.20;0.88;;;10.90;1.00;;;;;;7371443;19;19942;-71
2024/02/07 13:32:47;;;;;;;2.70;0.80;;;10.90;1.00;;;;;;7366323;19;20007;-72
2024/02/07 13:35:17;;;;;;;4.45;1.10;;;10.80;1.00;;;;;;7365308;19;20006;-72
2024/02/07 13:37:48;;;;;;;5.30;0.88;;;10.80;1.00;;;;;;7373032;19;20014;-73
2024/02/07 13:40:18;;;;;;;6.30;1.30;;;10.80;1.00;;;;;;7371636;19;20014;-73
2024/02/07 13:42:48;;;;;;;4.25;1.15;;;10.80;1.00;;;;;;7370294;19;20037;-72
2024/02/07 13:45:22;;;;;;;2.55;0.85;;;10.80;1.00;;;;;;7371055;19;20018;-73
2024/02/07 13:47:52;;;;;;;3.75;1.05;;;10.90;1.00;;;;;;7367431;19;20013;-72
2024/02/07 13:50:22;;;;;;;9.38;1.30;;;10.90;1.00;;;;;;7368825;19;20010;-72
2024/02/07 13:52:53;;;;;;;4.22;1.08;;;10.90;1.00;;;;;;7368351;19;20006;-73
2024/02/07 13:55:23;;;;;;;2.97;0.75;;;10.90;1.00;;;;;;7370019;19;20022;-72
2024/02/07 13:57:53;;;;;;;3.25;1.08;;;10.90;1.00;;;;;;7370049;19;20011;-71
2024/02/07 14:00:25;;;;;;;4.22;1.50;;;10.90;1.00;;;;;;7369051;19;20007;-72
2024/02/07 14:02:56;;;;;;;5.78;1.27;;;10.90;1.00;;;;;;7366678;19;20573;-71
2024/02/07 14:05:26;;;;;;;3.67;1.13;;;10.90;1.00;;;;;;7366578;19;20473;-71
2024/02/07 14:07:56;;;;;;;3.95;1.00;;;10.90;1.00;;;;;;7371966;19;20006;-71
2024/02/07 14:10:26;;;;;;;2.53;0.95;;;11.00;1.00;;;;;;7371248;19;20021;-73
2024/02/07 14:12:56;;;;;;;2.58;0.60;;;11.00;1.00;;;;;;7370204;19;20834;-72
2024/02/07 14:15:29;;;;;;;3.08;0.90;;;10.90;1.00;;;;;;7369685;19;20011;-71
2024/02/07 14:17:59;;;;;;;2.47;0.90;;;11.00;1.00;;;;;;7368096;19;20014;-73
2024/02/07 14:20:29;;;;;;;2.03;0.80;;;10.90;1.00;;;;;;7368171;19;20010;-71
2024/02/07 14:22:59;;;;;;;1.80;0.80;;;10.90;1.00;;;;;;7366885;19;20402;-71
2024/02/07 14:25:29;;;;;;;1.88;1.00;;;10.80;1.00;;;;;;7371020;19;20099;-70
2024/02/07 14:28:00;;;;;;;3.20;1.00;;;10.80;1.00;;;;;;7365236;19;20412;-71
2024/02/07 14:30:32;;;;;;;1.70;0.80;;;10.70;1.00;;;;;;7369335;19;20347;-71
2024/02/07 14:33:03;;;;;;;1.40;0.90;;;10.70;1.00;;;;;;7366159;19;20010;-71